sensor_id;sensor_type;location;lat;lon;timestamp;pressure;altitude;pressure_sealevel;temperature;humidity
40013;BME280;37387;42.672;23.334;2023-03-14T00:01:39;946.0;;;3.0;62.3
40013;BME280;37387;42.672;23.334;2023-03-14T00:04:39;946.0;;;2.9;62.7
40013;BME280;37387;42.672;23.334;2023-03-14T00:07:39;945.9;;;2.8;63.5
40013;BME280;37387;42.672;23.334;2023-03-14T00:09:39;945.9;;;2.7;64.3
40013;BME280;37387;42.672;23.334;2023-03-14T00:12:39;945.8;;;2.6;66.0
40013;BME280;37387;42.672;23.334;2023-03-14T00:13:39;945.9;;;2.5;66.5
40013;BME280;37387;42.672;23.334;2023-03-14T00:19:39;945.8;;;2.4;71.0
40013;BME280;37387;42.672;23.334;2023-03-14T00:20:39;945.8;;;2.3;71.9
40013;BME280;37387;42.672;23.334;2023-03-14T00:22:39;945.7;;;2.2;73.8
40013;BME280;37387;42.672;23.334;2023-03-14T00:26:39;945.7;;;2.1;75.6
40013;BME280;37387;42.672;23.334;2023-03-14T00:27:39;945.7;;;2.0;76.2
40013;BME280;37387;42.672;23.334;2023-03-14T00:42:39;945.5;;;1.9;77.9
40013;BME280;37387;42.672;23.334;2023-03-14T00:59:39;945.4;;;1.8;78.0
40013;BME280;37387;42.672;23.334;2023-03-14T01:01:39;945.4;;;1.7;78.9
40013;BME280;37387;42.672;23.334;2023-03-14T01:03:39;945.4;;;1.8;79.7
40013;BME280;37387;42.672;23.334;2023-03-14T01:04:39;945.4;;;1.7;79.7
40013;BME280;37387;42.672;23.334;2023-03-14T01:10:40;945.3;;;1.6;79.0
40013;BME280;37387;42.672;23.334;2023-03-14T01:11:39;945.3;;;1.7;79.2
40013;BME280;37387;42.672;23.334;2023-03-14T01:12:39;945.3;;;1.6;79.5
40013;BME280;37387;42.672;23.334;2023-03-14T01:15:39;945.3;;;1.5;79.4
40013;BME280;37387;42.672;23.334;2023-03-14T01:22:39;945.1;;;1.4;82.3
40013;BME280;37387;42.672;23.334;2023-03-14T01:29:39;945.1;;;1.3;83.4
40013;BME280;37387;42.672;23.334;2023-03-14T01:30:39;945.1;;;1.4;83.5
40013;BME280;37387;42.672;23.334;2023-03-14T01:33:40;945.0;;;1.3;82.1
40013;BME280;37387;42.672;23.334;2023-03-14T01:34:39;945.1;;;1.4;82.0
40013;BME280;37387;42.672;23.334;2023-03-14T01:37:39;945.0;;;1.3;82.0
40013;BME280;37387;42.672;23.334;2023-03-14T01:39:39;945.0;;;1.2;83.8
40013;BME280;37387;42.672;23.334;2023-03-14T01:42:44;945.0;;;1.3;83.8
40013;BME280;37387;42.672;23.334;2023-03-14T01:47:39;944.9;;;1.4;82.3
40013;BME280;37387;42.672;23.334;2023-03-14T01:48:40;944.9;;;1.3;82.3
40013;BME280;37387;42.672;23.334;2023-03-14T01:53:39;944.9;;;1.4;83.4
40013;BME280;37387;42.672;23.334;2023-03-14T01:54:40;944.9;;;1.3;83.2
40013;BME280;37387;42.672;23.334;2023-03-14T02:00:39;944.8;;;1.2;85.0
40013;BME280;37387;42.672;23.334;2023-03-14T02:01:40;944.8;;;1.3;85.3
40013;BME280;37387;42.672;23.334;2023-03-14T02:02:40;944.8;;;1.2;85.7
40013;BME280;37387;42.672;23.334;2023-03-14T02:03:42;944.8;;;1.3;85.8
40013;BME280;37387;42.672;23.334;2023-03-14T02:20:41;944.7;;;1.2;92.8
40013;BME280;37387;42.672;23.334;2023-03-14T02:22:40;944.7;;;1.1;94.1
40013;BME280;37387;42.672;23.334;2023-03-14T02:24:41;944.7;;;1.0;94.7
40013;BME280;37387;42.672;23.334;2023-03-14T02:26:40;944.7;;;0.9;95.4
40013;BME280;37387;42.672;23.334;2023-03-14T02:27:39;944.7;;;0.8;97.4
40013;BME280;37387;42.672;23.334;2023-03-14T02:42:39;944.8;;;0.7;100.0
40013;BME280;37387;42.672;23.334;2023-03-14T02:47:40;944.8;;;0.8;100.0
40013;BME280;37387;42.672;23.334;2023-03-14T02:49:39;944.8;;;0.7;100.0
40013;BME280;37387;42.672;23.334;2023-03-14T02:52:39;944.8;;;0.8;100.0
40013;BME280;37387;42.672;23.334;2023-03-14T02:56:39;944.8;;;0.9;100.0
40013;BME280;37387;42.672;23.334;2023-03-14T03:01:39;944.9;;;0.8;100.0
40013;BME280;37387;42.672;23.334;2023-03-14T03:05:39;944.8;;;0.9;100.0
40013;BME280;37387;42.672;23.334;2023-03-14T03:25:39;944.8;;;0.8;100.0
40013;BME280;37387;42.672;23.334;2023-03-14T03:27:39;944.8;;;0.9;100.0
40013;BME280;37387;42.672;23.334;2023-03-14T03:29:39;944.8;;;0.8;100.0
40013;BME280;37387;42.672;23.334;2023-03-14T03:33:39;944.8;;;0.7;100.0
40013;BME280;37387;42.672;23.334;2023-03-14T03:34:39;944.8;;;0.6;100.0
40013;BME280;37387;42.672;23.334;2023-03-14T03:35:43;944.8;;;0.5;100.0
40013;BME280;37387;42.672;23.334;2023-03-14T03:37:39;944.7;;;0.4;100.0
40013;BME280;37387;42.672;23.334;2023-03-14T03:40:39;944.7;;;0.5;100.0
40013;BME280;37387;42.672;23.334;2023-03-14T03:41:39;944.7;;;0.4;100.0
40013;BME280;37387;42.672;23.334;2023-03-14T03:48:39;944.8;;;0.3;100.0
40013;BME280;37387;42.672;23.334;2023-03-14T03:58:39;944.9;;;0.2;100.0
40013;BME280;37387;42.672;23.334;2023-03-14T04:06:39;944.9;;;0.1;100.0
40013;BME280;37387;42.672;23.334;2023-03-14T04:07:39;944.9;;;-0.1;100.0
40013;BME280;37387;42.672;23.334;2023-03-14T04:12:39;944.8;;;-0.0;100.0
40013;BME280;37387;42.672;23.334;2023-03-14T04:14:39;944.9;;;-0.1;100.0
40013;BME280;37387;42.672;23.334;2023-03-14T04:18:39;944.9;;;-0.2;100.0
40013;BME280;37387;42.672;23.334;2023-03-14T04:23:39;944.7;;;-0.1;100.0
40013;BME280;37387;42.672;23.334;2023-03-14T04:24:39;944.7;;;-0.2;100.0
40013;BME280;37387;42.672;23.334;2023-03-14T04:32:39;944.6;;;-0.1;100.0
40013;BME280;37387;42.672;23.334;2023-03-14T04:34:39;944.6;;;-0.2;100.0
40013;BME280;37387;42.672;23.334;2023-03-14T04:40:40;944.5;;;-0.1;100.0
40013;BME280;37387;42.672;23.334;2023-03-14T04:43:39;944.4;;;-0.2;100.0
40013;BME280;37387;42.672;23.334;2023-03-14T04:46:39;944.4;;;-0.1;100.0
40013;BME280;37387;42.672;23.334;2023-03-14T04:49:39;944.4;;;-0.0;100.0
40013;BME280;37387;42.672;23.334;2023-03-14T04:51:39;944.4;;;0.0;100.0
40013;BME280;37387;42.672;23.334;2023-03-14T04:55:39;944.4;;;0.1;100.0
40013;BME280;37387;42.672;23.334;2023-03-14T04:57:39;944.4;;;0.2;100.0
40013;BME280;37387;42.672;23.334;2023-03-14T05:01:39;944.3;;;0.3;100.0
40013;BME280;37387;42.672;23.334;2023-03-14T05:03:41;944.4;;;0.4;100.0
40013;BME280;37387;42.672;23.334;2023-03-14T05:05:39;944.4;;;0.5;100.0
40013;BME280;37387;42.672;23.334;2023-03-14T05:07:39;944.4;;;0.6;100.0
40013;BME280;37387;42.672;23.334;2023-03-14T05:09:39;944.4;;;0.7;100.0
40013;BME280;37387;42.672;23.334;2023-03-14T05:11:39;944.4;;;0.8;100.0
40013;BME280;37387;42.672;23.334;2023-03-14T05:12:39;944.4;;;0.9;100.0
40013;BME280;37387;42.672;23.334;2023-03-14T05:13:39;944.4;;;1.1;100.0
40013;BME280;37387;42.672;23.334;2023-03-14T05:14:39;944.3;;;1.6;100.0
40013;BME280;37387;42.672;23.334;2023-03-14T05:15:39;944.4;;;2.3;100.0
40013;BME280;37387;42.672;23.334;2023-03-14T05:16:39;944.4;;;3.2;100.0
40013;BME280;37387;42.672;23.334;2023-03-14T05:17:39;944.4;;;4.2;100.0
40013;BME280;37387;42.672;23.334;2023-03-14T05:18:39;944.4;;;5.2;100.0
40013;BME280;37387;42.672;23.334;2023-03-14T05:19:39;944.4;;;5.8;92.9
40013;BME280;37387;42.672;23.334;2023-03-14T05:20:39;944.5;;;7.0;72.9
40013;BME280;37387;42.672;23.334;2023-03-14T05:21:39;944.5;;;7.9;60.3
40013;BME280;37387;42.672;23.334;2023-03-14T05:22:39;944.5;;;9.1;60.3
40013;BME280;37387;42.672;23.334;2023-03-14T05:23:39;944.5;;;9.9;52.5
40013;BME280;37387;42.672;23.334;2023-03-14T05:24:39;944.5;;;10.8;52.5
40013;BME280;37387;42.672;23.334;2023-03-14T05:25:39;944.5;;;11.0;51.9
40013;BME280;37387;42.672;23.334;2023-03-14T05:26:39;944.4;;;11.2;47.0
40013;BME280;37387;42.672;23.334;2023-03-14T05:27:39;944.5;;;11.1;46.1
40013;BME280;37387;42.672;23.334;2023-03-14T05:28:39;944.5;;;11.6;45.1
40013;BME280;37387;42.672;23.334;2023-03-14T05:29:39;944.4;;;11.3;45.1
40013;BME280;37387;42.672;23.334;2023-03-14T05:30:39;944.4;;;10.6;44.5
40013;BME280;37387;42.672;23.334;2023-03-14T05:31:39;944.4;;;9.7;46.4
40013;BME280;37387;42.672;23.334;2023-03-14T05:32:39;944.4;;;10.2;46.4
40013;BME280;37387;42.672;23.334;2023-03-14T05:33:39;944.4;;;11.0;46.7
40013;BME280;37387;42.672;23.334;2023-03-14T05:34:39;944.4;;;12.4;46.3
40013;BME280;37387;42.672;23.334;2023-03-14T05:35:40;944.5;;;11.8;44.2
40013;BME280;37387;42.672;23.334;2023-03-14T05:37:39;944.5;;;11.6;43.8
40013;BME280;37387;42.672;23.334;2023-03-14T05:38:39;944.5;;;11.4;43.8
40013;BME280;37387;42.672;23.334;2023-03-14T05:39:39;944.5;;;10.9;45.2
40013;BME280;37387;42.672;23.334;2023-03-14T05:40:39;944.4;;;10.2;45.3
40013;BME280;37387;42.672;23.334;2023-03-14T05:41:39;944.4;;;10.4;45.3
40013;BME280;37387;42.672;23.334;2023-03-14T05:42:39;944.5;;;11.3;44.8
40013;BME280;37387;42.672;23.334;2023-03-14T05:43:39;944.5;;;11.9;42.9
40013;BME280;37387;42.672;23.334;2023-03-14T05:44:39;944.5;;;12.5;39.9
40013;BME280;37387;42.672;23.334;2023-03-14T05:45:39;944.5;;;12.6;39.9
40013;BME280;37387;42.672;23.334;2023-03-14T05:46:39;944.5;;;12.4;39.4
40013;BME280;37387;42.672;23.334;2023-03-14T05:47:39;944.5;;;12.3;39.4
40013;BME280;37387;42.672;23.334;2023-03-14T05:48:39;944.5;;;12.4;39.8
40013;BME280;37387;42.672;23.334;2023-03-14T05:49:39;944.4;;;13.4;39.4
40013;BME280;37387;42.672;23.334;2023-03-14T05:50:39;944.4;;;13.7;38.4
40013;BME280;37387;42.672;23.334;2023-03-14T05:51:39;944.4;;;13.4;37.2
40013;BME280;37387;42.672;23.334;2023-03-14T05:52:39;944.4;;;13.2;37.4
40013;BME280;37387;42.672;23.334;2023-03-14T05:53:39;944.4;;;13.0;37.7
40013;BME280;37387;42.672;23.334;2023-03-14T05:54:39;944.4;;;12.5;38.0
40013;BME280;37387;42.672;23.334;2023-03-14T05:55:39;944.5;;;12.8;39.0
40013;BME280;37387;42.672;23.334;2023-03-14T05:56:39;944.5;;;13.4;39.5
40013;BME280;37387;42.672;23.334;2023-03-14T05:57:39;944.5;;;12.9;37.5
40013;BME280;37387;42.672;23.334;2023-03-14T05:58:39;944.5;;;14.4;37.2
40013;BME280;37387;42.672;23.334;2023-03-14T05:59:39;944.5;;;15.7;37.2
40013;BME280;37387;42.672;23.334;2023-03-14T06:00:39;944.5;;;16.0;35.1
40013;BME280;37387;42.672;23.334;2023-03-14T06:01:39;944.5;;;15.8;34.7
40013;BME280;37387;42.672;23.334;2023-03-14T06:02:39;944.5;;;14.8;35.2
40013;BME280;37387;42.672;23.334;2023-03-14T06:03:39;944.5;;;14.4;35.8
40013;BME280;37387;42.672;23.334;2023-03-14T06:04:39;944.5;;;15.3;35.8
40013;BME280;37387;42.672;23.334;2023-03-14T06:05:39;944.5;;;14.6;35.6
40013;BME280;37387;42.672;23.334;2023-03-14T06:06:39;944.5;;;14.8;35.4
40013;BME280;37387;42.672;23.334;2023-03-14T06:07:39;944.4;;;15.3;34.9
40013;BME280;37387;42.672;23.334;2023-03-14T06:08:39;944.4;;;13.5;34.9
40013;BME280;37387;42.672;23.334;2023-03-14T06:09:39;944.4;;;13.6;39.1
40013;BME280;37387;42.672;23.334;2023-03-14T06:10:39;944.4;;;14.4;39.1
40013;BME280;37387;42.672;23.334;2023-03-14T06:11:39;944.5;;;14.2;37.3
40013;BME280;37387;42.672;23.334;2023-03-14T06:12:39;944.4;;;14.3;35.0
40013;BME280;37387;42.672;23.334;2023-03-14T06:13:39;944.4;;;14.6;35.3
40013;BME280;37387;42.672;23.334;2023-03-14T06:14:39;944.4;;;15.2;35.0
40013;BME280;37387;42.672;23.334;2023-03-14T06:15:39;944.4;;;14.8;34.2
40013;BME280;37387;42.672;23.334;2023-03-14T06:16:39;944.4;;;13.0;34.2
40013;BME280;37387;42.672;23.334;2023-03-14T06:17:39;944.4;;;12.4;37.6
40013;BME280;37387;42.672;23.334;2023-03-14T06:18:39;944.4;;;12.3;39.9
40013;BME280;37387;42.672;23.334;2023-03-14T06:19:39;944.3;;;11.1;39.9
40013;BME280;37387;42.672;23.334;2023-03-14T06:20:39;944.4;;;10.9;40.6
40013;BME280;37387;42.672;23.334;2023-03-14T06:21:39;944.4;;;11.4;42.0
40013;BME280;37387;42.672;23.334;2023-03-14T06:22:39;944.4;;;12.4;39.7
40013;BME280;37387;42.672;23.334;2023-03-14T06:23:39;944.4;;;12.2;38.3
40013;BME280;37387;42.672;23.334;2023-03-14T06:24:39;944.4;;;11.6;38.3
40013;BME280;37387;42.672;23.334;2023-03-14T06:25:39;944.4;;;12.2;39.7
40013;BME280;37387;42.672;23.334;2023-03-14T06:26:39;944.5;;;11.8;38.8
40013;BME280;37387;42.672;23.334;2023-03-14T06:27:39;944.5;;;11.4;39.4
40013;BME280;37387;42.672;23.334;2023-03-14T06:28:39;944.4;;;10.9;39.4
40013;BME280;37387;42.672;23.334;2023-03-14T06:29:39;944.5;;;12.0;40.6
40013;BME280;37387;42.672;23.334;2023-03-14T06:30:39;944.5;;;11.7;39.7
40013;BME280;37387;42.672;23.334;2023-03-14T06:31:39;944.4;;;10.2;41.2
40013;BME280;37387;42.672;23.334;2023-03-14T06:32:39;944.4;;;11.7;41.2
40013;BME280;37387;42.672;23.334;2023-03-14T06:33:39;944.5;;;12.3;42.7
40013;BME280;37387;42.672;23.334;2023-03-14T06:34:39;944.6;;;13.5;42.1
40013;BME280;37387;42.672;23.334;2023-03-14T06:35:39;944.5;;;13.9;39.1
40013;BME280;37387;42.672;23.334;2023-03-14T06:36:39;944.6;;;14.2;37.3
40013;BME280;37387;42.672;23.334;2023-03-14T06:37:39;944.5;;;14.9;36.5
40013;BME280;37387;42.672;23.334;2023-03-14T06:38:39;944.5;;;15.2;35.2
40013;BME280;37387;42.672;23.334;2023-03-14T06:39:39;944.5;;;14.2;34.6
40013;BME280;37387;42.672;23.334;2023-03-14T06:40:39;944.4;;;13.0;36.4
40013;BME280;37387;42.672;23.334;2023-03-14T06:41:39;944.4;;;12.9;36.4
40013;BME280;37387;42.672;23.334;2023-03-14T06:42:39;944.4;;;13.3;36.2
40013;BME280;37387;42.672;23.334;2023-03-14T06:43:39;944.4;;;12.1;36.2
40013;BME280;37387;42.672;23.334;2023-03-14T06:44:39;944.4;;;13.2;37.4
40013;BME280;37387;42.672;23.334;2023-03-14T06:45:39;944.3;;;11.3;37.4
40013;BME280;37387;42.672;23.334;2023-03-14T06:46:39;944.4;;;11.6;38.2
40013;BME280;37387;42.672;23.334;2023-03-14T06:47:39;944.4;;;12.7;39.8
40013;BME280;37387;42.672;23.334;2023-03-14T06:48:39;944.3;;;11.9;37.8
40013;BME280;37387;42.672;23.334;2023-03-14T06:49:39;944.3;;;12.2;38.4
40013;BME280;37387;42.672;23.334;2023-03-14T06:50:39;944.4;;;13.1;38.3
40013;BME280;37387;42.672;23.334;2023-03-14T06:51:39;944.3;;;12.6;37.6
40013;BME280;37387;42.672;23.334;2023-03-14T06:52:39;944.3;;;12.9;37.8
40013;BME280;37387;42.672;23.334;2023-03-14T06:53:39;944.3;;;14.1;37.4
40013;BME280;37387;42.672;23.334;2023-03-14T06:54:39;944.3;;;11.9;36.1
40013;BME280;37387;42.672;23.334;2023-03-14T06:55:39;944.2;;;11.7;38.4
40013;BME280;37387;42.672;23.334;2023-03-14T06:56:39;944.2;;;12.8;38.0
40013;BME280;37387;42.672;23.334;2023-03-14T06:57:39;944.2;;;14.1;38.0
40013;BME280;37387;42.672;23.334;2023-03-14T06:58:39;944.2;;;14.7;36.7
40013;BME280;37387;42.672;23.334;2023-03-14T07:00:39;944.2;;;15.6;35.1
40013;BME280;37387;42.672;23.334;2023-03-14T07:01:39;944.3;;;14.8;33.5
40013;BME280;37387;42.672;23.334;2023-03-14T07:02:39;944.2;;;14.5;34.4
40013;BME280;37387;42.672;23.334;2023-03-14T07:03:39;944.2;;;15.4;34.8
40013;BME280;37387;42.672;23.334;2023-03-14T07:04:39;944.2;;;13.8;33.6
40013;BME280;37387;42.672;23.334;2023-03-14T07:05:39;944.1;;;13.5;35.5
40013;BME280;37387;42.672;23.334;2023-03-14T07:06:39;944.1;;;14.0;35.4
40013;BME280;37387;42.672;23.334;2023-03-14T07:07:39;944.1;;;13.8;34.9
40013;BME280;37387;42.672;23.334;2023-03-14T07:08:39;944.1;;;12.5;35.4
40013;BME280;37387;42.672;23.334;2023-03-14T07:09:39;944.0;;;13.5;37.1
40013;BME280;37387;42.672;23.334;2023-03-14T07:10:39;944.1;;;14.8;36.9
40013;BME280;37387;42.672;23.334;2023-03-14T07:12:39;944.0;;;15.1;34.0
40013;BME280;37387;42.672;23.334;2023-03-14T07:13:39;944.0;;;14.5;33.1
40013;BME280;37387;42.672;23.334;2023-03-14T07:14:39;944.0;;;15.1;33.1
40013;BME280;37387;42.672;23.334;2023-03-14T07:15:39;944.0;;;14.8;33.3
40013;BME280;37387;42.672;23.334;2023-03-14T07:16:39;944.0;;;13.6;33.6
40013;BME280;37387;42.672;23.334;2023-03-14T07:17:39;944.0;;;14.0;35.3
40013;BME280;37387;42.672;23.334;2023-03-14T07:19:39;944.0;;;12.1;34.4
40013;BME280;37387;42.672;23.334;2023-03-14T07:20:39;944.1;;;13.2;36.3
40013;BME280;37387;42.672;23.334;2023-03-14T07:21:39;944.1;;;13.9;36.4
40013;BME280;37387;42.672;23.334;2023-03-14T07:22:39;944.1;;;14.2;35.1
40013;BME280;37387;42.672;23.334;2023-03-14T07:23:39;944.1;;;14.4;34.3
40013;BME280;37387;42.672;23.334;2023-03-14T07:24:39;944.1;;;15.2;34.2
40013;BME280;37387;42.672;23.334;2023-03-14T07:25:39;944.1;;;16.3;33.6
40013;BME280;37387;42.672;23.334;2023-03-14T07:26:39;944.1;;;17.4;31.2
40013;BME280;37387;42.672;23.334;2023-03-14T07:27:39;944.1;;;17.2;31.2
40013;BME280;37387;42.672;23.334;2023-03-14T07:28:39;944.1;;;16.6;30.5
40013;BME280;37387;42.672;23.334;2023-03-14T07:30:39;944.1;;;17.2;31.4
40013;BME280;37387;42.672;23.334;2023-03-14T07:31:39;944.1;;;17.7;30.0
40013;BME280;37387;42.672;23.334;2023-03-14T07:32:39;944.0;;;17.3;30.0
40013;BME280;37387;42.672;23.334;2023-03-14T07:33:39;944.0;;;17.8;30.2
40013;BME280;37387;42.672;23.334;2023-03-14T07:34:39;944.0;;;18.2;29.6
40013;BME280;37387;42.672;23.334;2023-03-14T07:35:39;944.0;;;16.6;28.6
40013;BME280;37387;42.672;23.334;2023-03-14T07:36:39;944.0;;;15.8;29.2
40013;BME280;37387;42.672;23.334;2023-03-14T07:37:39;944.0;;;15.0;30.6
40013;BME280;37387;42.672;23.334;2023-03-14T07:38:39;944.0;;;15.6;31.7
40013;BME280;37387;42.672;23.334;2023-03-14T07:39:39;944.0;;;15.7;31.7
40013;BME280;37387;42.672;23.334;2023-03-14T07:41:39;943.9;;;15.8;31.9
40013;BME280;37387;42.672;23.334;2023-03-14T07:42:39;943.8;;;14.9;32.2
40013;BME280;37387;42.672;23.334;2023-03-14T07:43:39;943.8;;;13.3;32.2
40013;BME280;37387;42.672;23.334;2023-03-14T07:44:39;943.8;;;13.2;35.2
40013;BME280;37387;42.672;23.334;2023-03-14T07:45:39;943.8;;;12.9;35.2
40013;BME280;37387;42.672;23.334;2023-03-14T07:46:39;943.8;;;13.7;35.0
40013;BME280;37387;42.672;23.334;2023-03-14T07:47:39;943.8;;;13.3;35.0
40013;BME280;37387;42.672;23.334;2023-03-14T07:49:39;943.8;;;13.5;35.6
40013;BME280;37387;42.672;23.334;2023-03-14T07:50:39;943.8;;;14.5;35.5
40013;BME280;37387;42.672;23.334;2023-03-14T07:51:39;943.7;;;14.8;34.4
40013;BME280;37387;42.672;23.334;2023-03-14T07:52:39;943.7;;;14.2;33.3
40013;BME280;37387;42.672;23.334;2023-03-14T07:53:39;943.7;;;14.8;34.0
40013;BME280;37387;42.672;23.334;2023-03-14T07:54:39;943.8;;;15.9;32.6
40013;BME280;37387;42.672;23.334;2023-03-14T07:55:39;943.8;;;16.1;32.6
40013;BME280;37387;42.672;23.334;2023-03-14T07:56:39;943.8;;;16.8;32.5
40013;BME280;37387;42.672;23.334;2023-03-14T07:57:39;943.8;;;18.0;31.5
40013;BME280;37387;42.672;23.334;2023-03-14T07:58:39;943.8;;;18.3;29.9
40013;BME280;37387;42.672;23.334;2023-03-14T07:59:39;943.8;;;16.8;29.6
40013;BME280;37387;42.672;23.334;2023-03-14T08:00:39;943.8;;;17.2;30.7
40013;BME280;37387;42.672;23.334;2023-03-14T08:02:39;943.8;;;17.0;30.3
40013;BME280;37387;42.672;23.334;2023-03-14T08:03:39;943.8;;;17.3;31.0
40013;BME280;37387;42.672;23.334;2023-03-14T08:04:39;943.8;;;17.7;30.3
40013;BME280;37387;42.672;23.334;2023-03-14T08:05:39;943.7;;;17.3;30.1
40013;BME280;37387;42.672;23.334;2023-03-14T08:06:39;943.7;;;17.1;30.1
40013;BME280;37387;42.672;23.334;2023-03-14T08:07:39;943.8;;;17.6;30.7
40013;BME280;37387;42.672;23.334;2023-03-14T08:08:39;943.8;;;17.8;30.1
40013;BME280;37387;42.672;23.334;2023-03-14T08:09:39;943.8;;;18.3;29.5
40013;BME280;37387;42.672;23.334;2023-03-14T08:10:39;943.8;;;18.6;29.2
40013;BME280;37387;42.672;23.334;2023-03-14T08:11:39;943.8;;;18.7;28.9
40013;BME280;37387;42.672;23.334;2023-03-14T08:12:39;943.8;;;17.6;29.0
40013;BME280;37387;42.672;23.334;2023-03-14T08:13:39;943.8;;;18.5;29.8
40013;BME280;37387;42.672;23.334;2023-03-14T08:15:39;943.7;;;17.7;28.8
40013;BME280;37387;42.672;23.334;2023-03-14T08:16:39;943.7;;;17.2;29.7
40013;BME280;37387;42.672;23.334;2023-03-14T08:18:39;943.7;;;17.6;30.3
40013;BME280;37387;42.672;23.334;2023-03-14T08:19:40;943.7;;;18.2;29.5
40013;BME280;37387;42.672;23.334;2023-03-14T08:20:39;943.7;;;18.3;29.5
40013;BME280;37387;42.672;23.334;2023-03-14T08:21:39;943.7;;;17.6;29.2
40013;BME280;37387;42.672;23.334;2023-03-14T08:22:39;943.7;;;17.5;29.2
40013;BME280;37387;42.672;23.334;2023-03-14T08:24:39;943.7;;;17.9;29.9
40013;BME280;37387;42.672;23.334;2023-03-14T08:25:39;943.7;;;18.5;29.2
40013;BME280;37387;42.672;23.334;2023-03-14T08:26:39;943.8;;;18.3;28.9
40013;BME280;37387;42.672;23.334;2023-03-14T08:27:39;943.7;;;18.4;28.7
40013;BME280;37387;42.672;23.334;2023-03-14T08:28:39;943.7;;;18.5;28.7
40013;BME280;37387;42.672;23.334;2023-03-14T08:29:39;943.7;;;19.1;28.8
40013;BME280;37387;42.672;23.334;2023-03-14T08:30:39;943.7;;;18.9;28.3
40013;BME280;37387;42.672;23.334;2023-03-14T08:31:39;943.7;;;19.0;28.0
40013;BME280;37387;42.672;23.334;2023-03-14T08:32:39;943.7;;;18.7;27.9
40013;BME280;37387;42.672;23.334;2023-03-14T08:33:39;943.7;;;18.8;28.0
40013;BME280;37387;42.672;23.334;2023-03-14T08:34:39;943.7;;;18.3;28.0
40013;BME280;37387;42.672;23.334;2023-03-14T08:35:39;943.7;;;17.0;28.4
40013;BME280;37387;42.672;23.334;2023-03-14T08:37:39;943.6;;;16.6;30.4
40013;BME280;37387;42.672;23.334;2023-03-14T08:39:39;943.6;;;16.1;31.3
40013;BME280;37387;42.672;23.334;2023-03-14T08:40:39;943.6;;;15.6;31.3
40013;BME280;37387;42.672;23.334;2023-03-14T08:41:39;943.5;;;15.9;31.6
40013;BME280;37387;42.672;23.334;2023-03-14T08:42:39;943.5;;;15.8;31.6
40013;BME280;37387;42.672;23.334;2023-03-14T08:43:39;943.5;;;16.5;31.5
40013;BME280;37387;42.672;23.334;2023-03-14T08:44:39;943.5;;;17.1;31.3
40013;BME280;37387;42.672;23.334;2023-03-14T08:45:39;943.5;;;17.9;30.4
40013;BME280;37387;42.672;23.334;2023-03-14T08:46:39;943.5;;;18.4;29.6
40013;BME280;37387;42.672;23.334;2023-03-14T08:47:39;943.5;;;18.3;28.7
40013;BME280;37387;42.672;23.334;2023-03-14T08:48:39;943.5;;;17.6;28.4
40013;BME280;37387;42.672;23.334;2023-03-14T08:49:39;943.4;;;17.0;29.6
40013;BME280;37387;42.672;23.334;2023-03-14T08:52:39;943.3;;;16.8;30.3
40013;BME280;37387;42.672;23.334;2023-03-14T08:53:39;943.3;;;17.0;30.3
40013;BME280;37387;42.672;23.334;2023-03-14T08:55:39;943.3;;;17.3;29.7
40013;BME280;37387;42.672;23.334;2023-03-14T08:56:39;943.3;;;18.1;29.9
40013;BME280;37387;42.672;23.334;2023-03-14T08:57:39;943.3;;;19.0;29.0
40013;BME280;37387;42.672;23.334;2023-03-14T08:58:39;943.3;;;18.9;27.8
40013;BME280;37387;42.672;23.334;2023-03-14T08:59:39;943.2;;;17.5;28.7
40013;BME280;37387;42.672;23.334;2023-03-14T09:00:39;943.2;;;14.9;28.7
40013;BME280;37387;42.672;23.334;2023-03-14T09:01:39;943.1;;;15.1;31.5
40013;BME280;37387;42.672;23.334;2023-03-14T09:02:39;943.1;;;14.9;32.0
40013;BME280;37387;42.672;23.334;2023-03-14T09:03:39;943.1;;;15.4;32.5
40013;BME280;37387;42.672;23.334;2023-03-14T09:04:41;943.1;;;15.9;31.4
40013;BME280;37387;42.672;23.334;2023-03-14T09:05:39;943.1;;;15.8;31.4
40013;BME280;37387;42.672;23.334;2023-03-14T09:06:39;943.1;;;16.5;31.5
40013;BME280;37387;42.672;23.334;2023-03-14T09:07:39;943.0;;;17.3;30.2
40013;BME280;37387;42.672;23.334;2023-03-14T09:08:39;943.0;;;17.7;29.3
40013;BME280;37387;42.672;23.334;2023-03-14T09:09:39;943.0;;;17.9;29.3
40013;BME280;37387;42.672;23.334;2023-03-14T09:10:39;943.0;;;17.3;28.9
40013;BME280;37387;42.672;23.334;2023-03-14T09:11:39;943.0;;;15.1;29.0
40013;BME280;37387;42.672;23.334;2023-03-14T09:12:39;943.0;;;14.9;32.1
40013;BME280;37387;42.672;23.334;2023-03-14T09:13:39;943.0;;;15.3;32.1
40013;BME280;37387;42.672;23.334;2023-03-14T09:14:39;942.9;;;16.4;31.0
40013;BME280;37387;42.672;23.334;2023-03-14T09:15:39;942.8;;;16.9;31.0
40013;BME280;37387;42.672;23.334;2023-03-14T09:16:39;942.8;;;16.8;29.8
40013;BME280;37387;42.672;23.334;2023-03-14T09:17:39;942.8;;;17.2;29.8
40013;BME280;37387;42.672;23.334;2023-03-14T09:18:39;942.9;;;17.8;29.6
40013;BME280;37387;42.672;23.334;2023-03-14T09:19:39;942.8;;;16.8;29.2
40013;BME280;37387;42.672;23.334;2023-03-14T09:20:39;942.8;;;16.4;30.0
40013;BME280;37387;42.672;23.334;2023-03-14T09:21:39;942.8;;;16.9;30.0
40013;BME280;37387;42.672;23.334;2023-03-14T09:22:39;942.8;;;17.2;29.6
40013;BME280;37387;42.672;23.334;2023-03-14T09:23:39;942.7;;;16.8;29.5
40013;BME280;37387;42.672;23.334;2023-03-14T09:24:39;942.7;;;16.9;29.5
40013;BME280;37387;42.672;23.334;2023-03-14T09:25:39;942.7;;;16.7;29.5
40013;BME280;37387;42.672;23.334;2023-03-14T09:26:39;942.7;;;16.4;29.7
40013;BME280;37387;42.672;23.334;2023-03-14T09:27:39;942.6;;;16.3;29.8
40013;BME280;37387;42.672;23.334;2023-03-14T09:28:39;942.6;;;16.2;29.9
40013;BME280;37387;42.672;23.334;2023-03-14T09:29:39;942.6;;;15.7;29.9
40013;BME280;37387;42.672;23.334;2023-03-14T09:30:39;942.7;;;15.4;30.1
40013;BME280;37387;42.672;23.334;2023-03-14T09:31:39;942.6;;;14.6;30.9
40013;BME280;37387;42.672;23.334;2023-03-14T09:33:39;942.6;;;14.2;31.8
40013;BME280;37387;42.672;23.334;2023-03-14T09:35:39;942.5;;;14.8;32.2
40013;BME280;37387;42.672;23.334;2023-03-14T09:36:39;942.5;;;15.1;31.8
40013;BME280;37387;42.672;23.334;2023-03-14T09:37:39;942.5;;;14.6;31.0
40013;BME280;37387;42.672;23.334;2023-03-14T09:38:39;942.5;;;14.0;31.0
40013;BME280;37387;42.672;23.334;2023-03-14T09:39:39;942.4;;;14.4;31.7
40013;BME280;37387;42.672;23.334;2023-03-14T09:40:39;942.4;;;14.7;31.7
40013;BME280;37387;42.672;23.334;2023-03-14T09:41:40;942.4;;;15.1;31.1
40013;BME280;37387;42.672;23.334;2023-03-14T09:42:39;942.4;;;14.8;30.8
40013;BME280;37387;42.672;23.334;2023-03-14T09:43:39;942.4;;;15.2;30.8
40013;BME280;37387;42.672;23.334;2023-03-14T09:44:42;942.4;;;16.0;30.8
40013;BME280;37387;42.672;23.334;2023-03-14T09:46:39;942.3;;;16.1;29.5